Time,TemperatureF,DewpointF,PressureIn,WindDirection,WindDirectionDegrees,WindSpeedMPH,WindSpeedGustMPH,Humidity,HourlyPrecipIn,Conditions,Clouds,dailyrainin,SoftwareType,DateUTC
2013-01-18 00:04:00,-14.3,-18.9,30.17,NNW,331,0.0,0.0,79,0.00,RA,OVC,0.00,WeatherDisplay:10.37,2013-01-18 05:04:00,
2013-01-18 00:09:00,-14.3,-18.7,30.18,NNW,331,0.0,0.0,80,0.00,SKC,OVC,0.00,WeatherDisplay:10.37,2013-01-18 05:09:00,
2013-01-18 00:14:00,-14.3,-18.7,30.18,NNW,331,0.0,1.0,80,0.00,SKC,OVC,0.00,WeatherDisplay:10.37,2013-01-18 05:14:00,
2013-01-18 00:19:00,-14.5,-19.1,30.18,NNW,331,0.0,0.0,79,0.00,SKC,OVC,0.00,WeatherDisplay:10.37,2013-01-18 05:19:00,
2013-01-18 00:24:00,-14.6,-19.2,30.18,NNW,331,0.0,0.0,79,0.00,SKC,OVC,0.00,WeatherDisplay:10.37,2013-01-18 05:24:00,
2013-01-18 00:29:00,-14.6,-19.2,30.18,NNW,331,0.0,0.0,79,0.00,SKC,OVC,0.00,WeatherDisplay:10.37,2013-01-18 05:29:00,
2013-01-18 00:34:00,-14.6,-19.2,30.19,NNW,331,0.0,0.0,79,0.00,SKC,OVC,0.00,WeatherDisplay:10.37,2013-01-18 05:34:00,
2013-01-18 00:39:00,-14.6,-19.3,30.19,NNW,331,0.0,0.0,79,0.00,SKC,OVC,0.00,WeatherDisplay:10.37,2013-01-18 05:39:00,
2013-01-18 00:49:00,-14.8,-19.1,30.20,NNW,329,0.0,1.0,80,0.00,SKC,OVC,0.00,WeatherDisplay:10.37,2013-01-18 05:49:00,
2013-01-18 00:54:00,-14.7,-19.1,30.21,West,260,0.0,0.0,80,0.00,SKC,OVC,0.00,WeatherDisplay:10.37,2013-01-18 05:54:00,
2013-01-18 00:59:00,-14.7,-19.1,30.21,WSW,246,0.0,0.0,80,0.00,SKC,OVC,0.00,WeatherDisplay:10.37,2013-01-18 05:59:00,
2013-01-18 01:04:00,-14.7,-19.3,30.21,WSW,252,0.0,1.0,79,0.00,SKC,OVC,0.00,WeatherDisplay:10.37,2013-01-18 06:04:00,
2013-01-18 01:09:00,-14.7,-19.3,30.21,NNW,333,0.0,0.0,79,0.00,SKC,OVC,0.00,WeatherDisplay:10.37,2013-01-18 06:09:00,
2013-01-18 01:14:00,-14.7,-19.3,30.22,NNW,342,0.0,1.0,79,0.00,SKC,OVC,0.00,WeatherDisplay:10.37,2013-01-18 06:14:00,
2013-01-18 01:19:00,-14.7,-19.3,30.22,NNW,342,0.0,0.0,79,0.00,SKC,OVC,0.00,WeatherDisplay:10.37,2013-01-18 06:19:00,
2013-01-18 01:24:00,-14.8,-19.6,30.22,NNW,342,0.0,0.0,78,0.00,SKC,OVC,0.00,WeatherDisplay:10.37,2013-01-18 06:24:00,
2013-01-18 01:29:00,-14.8,-19.7,30.22,NNW,342,0.0,0.0,78,0.00,SKC,OVC,0.00,WeatherDisplay:10.37,2013-01-18 06:29:00,
2013-01-18 01:34:00,-14.9,-19.8,30.23,NNW,340,0.0,1.0,78,0.00,SKC,OVC,0.00,WeatherDisplay:10.37,2013-01-18 06:34:00,
2013-01-18 01:39:00,-14.9,-19.8,30.23,NNW,335,0.0,1.0,78,0.00,SKC,OVC,0.00,WeatherDisplay:10.37,2013-01-18 06:39:00,
2013-01-18 01:44:00,-15.0,-19.9,30.23,NNW,334,0.0,0.0,78,0.00,SKC,OVC,0.00,WeatherDisplay:10.37,2013-01-18 06:44:00,
2013-01-18 01:49:00,-15.0,-19.9,30.22,NNW,334,0.0,0.0,78,0.00,SKC,OVC,0.00,WeatherDisplay:10.37,2013-01-18 06:49:00,
2013-01-18 01:54:00,-15.1,-20.0,30.22,NNW,334,0.0,0.0,78,0.00,SKC,OVC,0.00,WeatherDisplay:10.37,2013-01-18 06:54:00,
2013-01-18 01:59:00,-15.2,-20.1,30.22,NNW,339,0.0,0.0,78,0.00,SKC,OVC,0.00,WeatherDisplay:10.37,2013-01-18 06:59:00,
2013-01-18 02:04:00,-15.3,-20.1,30.22,NNW,343,0.0,1.0,78,0.00,SKC,OVC,0.00,WeatherDisplay:10.37,2013-01-18 07:04:00,
2013-01-18 02:09:00,-15.4,-20.2,30.23,NNW,343,0.0,1.0,78,0.00,SKC,OVC,0.00,WeatherDisplay:10.37,2013-01-18 07:09:00,
2013-01-18 02:14:00,-15.5,-20.3,30.23,NW,310,0.0,1.0,78,0.00,SKC,OVC,0.00,WeatherDisplay:10.37,2013-01-18 07:14:00,
2013-01-18 02:19:00,-15.5,-20.3,30.24,NW,307,0.0,1.0,78,0.00,SKC,OVC,0.00,WeatherDisplay:10.37,2013-01-18 07:19:00,
2013-01-18 02:29:00,-15.6,-20.4,30.24,NW,325,0.0,1.0,78,0.00,SKC,OVC,0.00,WeatherDisplay:10.37,2013-01-18 07:29:00,
2013-01-18 02:34:00,-15.7,-20.5,30.24,NNW,337,0.0,1.0,78,0.00,SKC,OVC,0.00,WeatherDisplay:10.37,2013-01-18 07:34:00,
2013-01-18 02:39:00,-15.8,-20.6,30.24,NNW,338,0.0,0.0,78,0.00,SKC,OVC,0.00,WeatherDisplay:10.37,2013-01-18 07:39:00,
2013-01-18 02:44:00,-15.8,-20.6,30.24,NNW,338,0.0,1.0,78,0.00,SKC,OVC,0.00,WeatherDisplay:10.37,2013-01-18 07:44:00,
2013-01-18 02:49:00,-15.9,-20.7,30.24,NNW,336,0.0,1.0,78,0.00,SKC,OVC,0.00,WeatherDisplay:10.37,2013-01-18 07:49:00,
2013-01-18 02:54:00,-15.9,-20.7,30.24,NW,324,0.0,1.0,78,0.00,SKC,OVC,0.00,WeatherDisplay:10.37,2013-01-18 07:54:00,
2013-01-18 02:59:00,-15.9,-20.7,30.24,NW,323,0.0,1.0,78,0.00,SKC,OVC,0.00,WeatherDisplay:10.37,2013-01-18 07:59:00,
2013-01-18 03:04:00,-15.9,-20.7,30.24,NW,324,0.0,1.0,78,0.00,SKC,OVC,0.00,WeatherDisplay:10.37,2013-01-18 08:04:00,
2013-01-18 03:09:00,-16.0,-20.8,30.24,NNW,337,0.0,1.0,78,0.00,SKC,OVC,0.00,WeatherDisplay:10.37,2013-01-18 08:09:00,
2013-01-18 03:14:00,-16.1,-20.9,30.25,NNW,328,0.0,1.0,78,0.00,SKC,OVC,0.00,WeatherDisplay:10.37,2013-01-18 08:14:00,
2013-01-18 03:19:00,-16.2,-21.0,30.25,NW,313,1.0,1.0,78,0.00,SKC,OVC,0.00,WeatherDisplay:10.37,2013-01-18 08:19:00,
2013-01-18 03:24:00,-16.3,-21.1,30.25,NW,305,0.0,1.0,78,0.00,SKC,OVC,0.00,WeatherDisplay:10.37,2013-01-18 08:24:00,
2013-01-18 03:29:00,-16.3,-21.1,30.25,NW,304,0.0,0.0,78,0.00,SKC,OVC,0.00,WeatherDisplay:10.37,2013-01-18 08:29:00,
2013-01-18 03:34:00,-16.3,-21.1,30.25,NW,304,0.0,1.0,78,0.00,SKC,OVC,0.00,WeatherDisplay:10.37,2013-01-18 08:34:00,
2013-01-18 03:39:00,-16.4,-21.2,30.26,NW,304,0.0,1.0,78,0.00,SKC,OVC,0.00,WeatherDisplay:10.37,2013-01-18 08:39:00,
2013-01-18 03:49:00,-16.6,-21.7,30.25,NW,304,0.0,0.0,77,0.00,SKC,OVC,0.00,WeatherDisplay:10.37,2013-01-18 08:49:00,
2013-01-18 03:59:00,-16.8,-21.9,30.26,NW,306,0.0,1.0,77,0.00,SKC,OVC,0.00,WeatherDisplay:10.37,2013-01-18 08:59:00,
2013-01-18 04:04:00,-17.0,-22.0,30.26,North,352,0.0,1.0,77,0.00,SKC,OVC,0.00,WeatherDisplay:10.37,2013-01-18 09:04:00,
2013-01-18 04:09:00,-17.0,-22.1,30.26,North,355,0.0,0.0,77,0.00,SKC,OVC,0.00,WeatherDisplay:10.37,2013-01-18 09:09:00,
2013-01-18 04:19:00,-17.2,-22.2,30.25,North,355,0.0,0.0,77,0.00,SKC,OVC,0.00,WeatherDisplay:10.37,2013-01-18 09:19:00,
2013-01-18 04:24:00,-17.3,-22.1,30.25,North,355,0.0,0.0,78,0.00,SKC,OVC,0.00,WeatherDisplay:10.37,2013-01-18 09:24:00,
2013-01-18 04:29:00,-17.3,-22.1,30.26,North,355,0.0,0.0,78,0.00,SKC,OVC,0.00,WeatherDisplay:10.37,2013-01-18 09:29:00,
2013-01-18 04:34:00,-17.4,-22.2,30.26,North,355,0.0,0.0,78,0.00,SKC,OVC,0.00,WeatherDisplay:10.37,2013-01-18 09:34:00,
2013-01-18 04:39:00,-17.4,-22.2,30.26,NNW,347,0.0,1.0,78,0.00,SKC,OVC,0.00,WeatherDisplay:10.37,2013-01-18 09:39:00,
2013-01-18 04:44:00,-17.3,-21.9,30.26,NNW,340,0.0,1.0,79,0.00,SKC,OVC,0.00,WeatherDisplay:10.37,2013-01-18 09:44:00,
2013-01-18 04:49:00,-17.2,-21.8,30.26,NNW,340,0.0,0.0,79,0.00,SKC,OVC,0.00,WeatherDisplay:10.37,2013-01-18 09:49:00,
2013-01-18 04:54:00,-17.1,-21.7,30.26,NNW,340,0.0,0.0,79,0.00,SKC,OVC,0.00,WeatherDisplay:10.37,2013-01-18 09:54:00,
2013-01-18 04:59:00,-17.1,-21.7,30.26,NNW,340,0.0,0.0,79,0.00,SKC,OVC,0.00,WeatherDisplay:10.37,2013-01-18 09:59:00,
2013-01-18 05:04:00,-17.0,-21.6,30.26,NNW,340,0.0,1.0,79,0.00,SKC,OVC,0.00,WeatherDisplay:10.37,2013-01-18 10:04:00,
2013-01-18 05:09:00,-17.0,-21.6,30.26,NNW,340,0.0,0.0,79,0.00,SKC,OVC,0.00,WeatherDisplay:10.37,2013-01-18 10:09:00,
2013-01-18 05:14:00,-17.0,-21.6,30.26,NNW,340,0.0,0.0,79,0.00,SKC,OVC,0.00,WeatherDisplay:10.37,2013-01-18 10:14:00,
2013-01-18 05:19:00,-17.0,-21.8,30.27,NNW,340,0.0,0.0,78,0.00,SKC,OVC,0.00,WeatherDisplay:10.37,2013-01-18 10:19:00,
2013-01-18 05:24:00,-17.1,-21.9,30.27,NNW,340,0.0,0.0,78,0.00,SKC,OVC,0.00,WeatherDisplay:10.37,2013-01-18 10:24:00,
2013-01-18 05:29:00,-17.1,-21.9,30.27,NNW,340,0.0,0.0,78,0.00,SKC,OVC,0.00,WeatherDisplay:10.37,2013-01-18 10:29:00,
2013-01-18 05:34:00,-17.2,-22.0,30.28,NNW,340,0.0,0.0,78,0.00,SKC,OVC,0.00,WeatherDisplay:10.37,2013-01-18 10:34:00,
2013-01-18 05:39:00,-17.2,-22.0,30.28,NNW,343,0.0,1.0,78,0.00,SKC,OVC,0.00,WeatherDisplay:10.37,2013-01-18 10:39:00,
2013-01-18 05:44:00,-17.2,-22.0,30.28,NNW,341,0.0,2.0,78,0.00,SKC,OVC,0.00,WeatherDisplay:10.37,2013-01-18 10:44:00,
2013-01-18 05:49:00,-17.1,-21.7,30.28,NNW,335,0.0,1.0,79,0.00,SKC,OVC,0.00,WeatherDisplay:10.37,2013-01-18 10:49:00,
2013-01-18 05:54:00,-17.1,-21.7,30.29,NNW,335,0.0,2.0,79,0.00,SKC,OVC,0.00,WeatherDisplay:10.37,2013-01-18 10:54:00,
2013-01-18 05:59:00,-17.1,-21.7,30.29,NNW,336,0.0,2.0,79,0.00,SKC,OVC,0.00,WeatherDisplay:10.37,2013-01-18 10:59:00,
2013-01-18 06:04:00,-17.1,-21.9,30.30,NNW,341,0.0,1.0,78,0.00,SKC,OVC,0.00,WeatherDisplay:10.37,2013-01-18 11:04:00,
2013-01-18 06:09:00,-17.1,-21.9,30.29,NNW,344,0.0,1.0,78,0.00,SKC,OVC,0.00,WeatherDisplay:10.37,2013-01-18 11:09:00,
2013-01-18 06:14:00,-17.1,-21.9,30.30,NNW,343,0.0,1.0,78,0.00,SKC,OVC,0.00,WeatherDisplay:10.37,2013-01-18 11:14:00,
2013-01-18 06:19:00,-17.2,-22.0,30.30,NNW,343,0.0,1.0,78,0.00,SKC,OVC,0.00,WeatherDisplay:10.37,2013-01-18 11:19:00,
2013-01-18 06:24:00,-17.2,-22.0,30.30,NNW,343,0.0,1.0,78,0.00,SKC,OVC,0.00,WeatherDisplay:10.37,2013-01-18 11:24:00,
2013-01-18 06:29:00,-17.2,-22.0,30.30,NNW,348,0.0,0.0,78,0.00,SKC,OVC,0.00,WeatherDisplay:10.37,2013-01-18 11:29:00,
2013-01-18 06:34:00,-17.2,-22.0,30.31,NNW,348,0.0,0.0,78,0.00,SKC,OVC,0.00,WeatherDisplay:10.37,2013-01-18 11:34:00,
2013-01-18 06:39:00,-17.3,-22.1,30.30,NNW,348,0.0,0.0,78,0.00,SKC,OVC,0.00,WeatherDisplay:10.37,2013-01-18 11:39:00,
2013-01-18 06:44:00,-17.3,-22.1,30.31,NNW,348,0.0,1.0,78,0.00,SKC,OVC,0.00,WeatherDisplay:10.37,2013-01-18 11:44:00,
2013-01-18 06:49:00,-17.4,-22.2,30.31,NNW,348,0.0,1.0,78,0.00,SKC,OVC,0.00,WeatherDisplay:10.37,2013-01-18 11:49:00,
2013-01-18 06:54:00,-17.4,-22.2,30.31,NNW,348,0.0,1.0,78,0.00,SKC,OVC,0.00,WeatherDisplay:10.37,2013-01-18 11:54:00,
2013-01-18 06:59:00,-17.3,-21.9,30.31,NNW,348,0.0,1.0,79,0.00,SKC,OVC,0.00,WeatherDisplay:10.37,2013-01-18 11:59:00,
2013-01-18 07:04:00,-17.3,-22.1,30.31,NNW,348,0.0,1.0,78,0.00,SKC,OVC,0.00,WeatherDisplay:10.37,2013-01-18 12:04:00,
2013-01-18 07:09:00,-17.3,-21.9,30.31,NNW,348,0.0,0.0,79,0.00,SKC,OVC,0.00,WeatherDisplay:10.37,2013-01-18 12:09:00,
2013-01-18 07:14:00,-17.3,-21.9,30.31,NNW,348,0.0,0.0,79,0.00,FEW,OVC,0.00,WeatherDisplay:10.37,2013-01-18 12:14:00,
2013-01-18 07:19:00,-17.2,-21.8,30.31,NNW,348,0.0,1.0,79,0.00,FEW,OVC,0.00,WeatherDisplay:10.37,2013-01-18 12:19:00,
2013-01-18 07:24:00,-17.2,-21.8,30.31,NNW,348,0.0,0.0,79,0.00,FEW,OVC,0.00,WeatherDisplay:10.37,2013-01-18 12:24:00,
2013-01-18 07:29:00,-17.1,-21.7,30.32,NNW,348,0.0,0.0,79,0.00,FEW,OVC,0.00,WeatherDisplay:10.37,2013-01-18 12:29:00,
2013-01-18 07:34:00,-17.1,-21.7,30.32,NNW,348,0.0,0.0,79,0.00,FEW,OVC,0.00,WeatherDisplay:10.37,2013-01-18 12:34:00,
2013-01-18 07:39:00,-17.0,-21.6,30.32,NNW,348,0.0,0.0,79,0.00,FEW,OVC,0.00,WeatherDisplay:10.37,2013-01-18 12:39:00,
2013-01-18 07:44:00,-17.0,-21.6,30.32,NNW,348,0.0,0.0,79,0.00,FEW,OVC,0.00,WeatherDisplay:10.37,2013-01-18 12:44:00,
2013-01-18 07:49:00,-16.9,-21.5,30.32,NNW,348,0.0,0.0,79,0.00,FEW,OVC,0.00,WeatherDisplay:10.37,2013-01-18 12:49:00,
2013-01-18 07:54:00,-16.8,-21.4,30.32,NNW,348,0.0,0.0,79,0.00,FEW,OVC,0.00,WeatherDisplay:10.37,2013-01-18 12:54:00,
2013-01-18 07:59:00,-16.8,-21.4,30.33,NNW,348,0.0,0.0,79,0.00,FEW,OVC,0.00,WeatherDisplay:10.37,2013-01-18 12:59:00,
2013-01-18 08:04:00,-16.7,-21.3,30.33,NNW,348,0.0,0.0,79,0.00,FEW,OVC,0.00,WeatherDisplay:10.37,2013-01-18 13:04:00,
2013-01-18 08:09:00,-16.7,-21.3,30.33,NNW,348,0.0,0.0,79,0.00,FEW,OVC,0.00,WeatherDisplay:10.37,2013-01-18 13:09:00,
2013-01-18 08:14:00,-16.6,-21.2,30.33,NNW,348,0.0,0.0,79,0.00,FEW,OVC,0.00,WeatherDisplay:10.37,2013-01-18 13:14:00,
2013-01-18 08:19:00,-16.5,-21.1,30.33,NNW,348,0.0,0.0,79,0.00,FEW,OVC,0.00,WeatherDisplay:10.37,2013-01-18 13:19:00,
2013-01-18 08:24:00,-16.4,-20.7,30.33,NNW,348,0.0,0.0,80,0.00,FEW,OVC,0.00,WeatherDisplay:10.37,2013-01-18 13:24:00,
2013-01-18 08:29:00,-16.2,-20.5,30.33,NNW,348,0.0,0.0,80,0.00,FEW,OVC,0.00,WeatherDisplay:10.37,2013-01-18 13:29:00,
2013-01-18 08:34:00,-15.9,-20.0,30.33,NNW,348,0.0,0.0,81,0.00,FEW,OVC,0.00,WeatherDisplay:10.37,2013-01-18 13:34:00,
2013-01-18 08:39:00,-15.6,-19.7,30.33,NNW,348,0.0,0.0,81,0.00,FEW,OVC,0.00,WeatherDisplay:10.37,2013-01-18 13:39:00,
2013-01-18 08:44:00,-14.1,-18.0,30.33,NNW,346,0.0,0.0,82,0.00,FEW,OVC,0.00,WeatherDisplay:10.37,2013-01-18 13:44:00,
2013-01-18 08:49:00,-12.2,-16.2,30.33,NNW,343,0.0,0.0,82,0.00,FEW,OVC,0.00,WeatherDisplay:10.37,2013-01-18 13:49:00,
2013-01-18 08:54:00,-10.5,-14.5,30.33,NNW,333,0.0,2.0,82,0.00,FEW,OVC,0.00,WeatherDisplay:10.37,2013-01-18 13:54:00,
2013-01-18 08:59:00,-8.0,-12.3,30.33,WSW,257,1.0,3.0,81,0.00,FEW,OVC,0.00,WeatherDisplay:10.37,2013-01-18 13:59:00,
2013-01-18 09:04:00,-6.1,-11.1,30.33,SW,228,1.0,4.0,78,0.00,FEW,OVC,0.00,WeatherDisplay:10.37,2013-01-18 14:04:00,
2013-01-18 09:09:00,-5.0,-10.9,30.34,WSW,237,0.0,5.0,75,0.00,FEW,OVC,0.00,WeatherDisplay:10.37,2013-01-18 14:09:00,
2013-01-18 09:14:00,-4.1,-10.6,30.34,WSW,242,0.0,3.0,73,0.00,BKN,OVC,0.00,WeatherDisplay:10.37,2013-01-18 14:14:00,
2013-01-18 09:19:00,-3.2,-10.6,30.34,WSW,240,1.0,6.0,70,0.00,BKN,OVC,0.00,WeatherDisplay:10.37,2013-01-18 14:19:00,
2013-01-18 09:24:00,-2.1,-10.4,30.34,WSW,239,1.0,8.0,67,0.00,BKN,OVC,0.00,WeatherDisplay:10.37,2013-01-18 14:24:00,
2013-01-18 09:29:00,-1.2,-10.5,30.34,WSW,248,2.0,7.0,64,0.00,BKN,OVC,0.00,WeatherDisplay:10.37,2013-01-18 14:29:00,
2013-01-18 09:34:00,-0.6,-10.5,30.34,SW,231,1.0,6.0,62,0.00,BKN,OVC,0.00,WeatherDisplay:10.37,2013-01-18 14:34:00,
2013-01-18 09:39:00,0.0,-10.6,30.34,SW,229,2.0,6.0,60,0.00,BKN,OVC,0.00,WeatherDisplay:10.37,2013-01-18 14:39:00,
2013-01-18 09:44:00,0.5,-10.8,30.34,WSW,242,2.0,5.0,58,0.00,BKN,OVC,0.00,WeatherDisplay:10.37,2013-01-18 14:44:00,
2013-01-18 09:49:00,1.0,-11.1,30.34,West,261,5.0,12.0,56,0.00,BKN,OVC,0.00,WeatherDisplay:10.37,2013-01-18 14:49:00,
2013-01-18 09:54:00,1.5,-10.6,30.34,WSW,252,1.0,8.0,56,0.00,BKN,OVC,0.00,WeatherDisplay:10.37,2013-01-18 14:54:00,
2013-01-18 09:59:00,2.0,-10.5,30.34,WSW,246,3.0,8.0,55,0.00,BKN,OVC,0.00,WeatherDisplay:10.37,2013-01-18 14:59:00,
2013-01-18 10:04:00,2.3,-10.2,30.34,West,268,1.0,8.0,55,0.00,BKN,OVC,0.00,WeatherDisplay:10.37,2013-01-18 15:04:00,
2013-01-18 10:09:00,2.6,-10.3,30.34,WNW,289,3.0,7.0,54,0.00,BKN,OVC,0.00,WeatherDisplay:10.37,2013-01-18 15:09:00,
2013-01-18 10:14:00,3.0,-9.9,30.34,WNW,289,3.0,7.0,54,0.00,SKC,OVC,0.00,WeatherDisplay:10.37,2013-01-18 15:14:00,
2013-01-18 10:19:00,3.4,-9.2,30.34,WNW,284,1.0,7.0,55,0.00,SKC,OVC,0.00,WeatherDisplay:10.37,2013-01-18 15:19:00,
2013-01-18 10:24:00,3.8,-9.2,30.34,WNW,282,5.0,8.0,54,0.00,SKC,OVC,0.00,WeatherDisplay:10.37,2013-01-18 15:24:00,
2013-01-18 10:29:00,4.2,-8.4,30.34,WNW,292,3.0,12.0,55,0.00,SKC,OVC,0.00,WeatherDisplay:10.37,2013-01-18 15:29:00,
2013-01-18 10:34:00,4.7,-8.0,30.34,WNW,301,6.0,12.0,55,0.00,SKC,OVC,0.00,WeatherDisplay:10.37,2013-01-18 15:34:00,
2013-01-18 10:39:00,4.8,-7.9,30.34,NW,305,5.0,12.0,55,0.00,SKC,OVC,0.00,WeatherDisplay:10.37,2013-01-18 15:39:00,
2013-01-18 10:44:00,5.1,-7.6,30.34,WNW,297,7.0,12.0,55,0.00,SKC,OVC,0.00,WeatherDisplay:10.37,2013-01-18 15:44:00,
2013-01-18 10:49:00,5.5,-7.2,30.34,WNW,286,5.0,10.0,55,0.00,SKC,OVC,0.00,WeatherDisplay:10.37,2013-01-18 15:49:00,
2013-01-18 10:59:00,5.5,-7.2,30.34,WNW,301,6.0,20.0,55,0.00,SKC,OVC,0.00,WeatherDisplay:10.37,2013-01-18 15:59:00,
2013-01-18 11:04:00,5.4,-7.7,30.34,NW,306,7.0,14.0,54,0.00,SKC,OVC,0.00,WeatherDisplay:10.37,2013-01-18 16:04:00,
2013-01-18 11:09:00,5.4,-7.7,30.34,WNW,287,6.0,15.0,54,0.00,SKC,OVC,0.00,WeatherDisplay:10.37,2013-01-18 16:09:00,
2013-01-18 11:19:00,5.5,-7.6,30.34,NW,307,8.0,16.0,54,0.00,SKC,OVC,0.00,WeatherDisplay:10.37,2013-01-18 16:19:00,
2013-01-18 11:29:00,5.8,-7.3,30.33,West,280,6.0,9.0,54,0.00,SKC,OVC,0.00,WeatherDisplay:10.37,2013-01-18 16:29:00,
2013-01-18 11:34:00,5.8,-7.7,30.33,WNW,297,7.0,13.0,53,0.00,SKC,OVC,0.00,WeatherDisplay:10.37,2013-01-18 16:34:00,
2013-01-18 11:39:00,5.8,-7.7,30.33,WNW,289,6.0,15.0,53,0.00,SKC,OVC,0.00,WeatherDisplay:10.37,2013-01-18 16:39:00,
2013-01-18 11:44:00,5.8,-8.1,30.33,WNW,282,6.0,14.0,52,0.00,SKC,OVC,0.00,WeatherDisplay:10.37,2013-01-18 16:44:00,
2013-01-18 11:49:00,5.9,-8.0,30.33,West,279,7.0,13.0,52,0.00,SKC,OVC,0.00,WeatherDisplay:10.37,2013-01-18 16:49:00,
2013-01-18 11:54:00,6.0,-7.9,30.33,WNW,291,8.0,12.0,52,0.00,SKC,OVC,0.00,WeatherDisplay:10.37,2013-01-18 16:54:00,
2013-01-18 11:59:00,6.2,-8.1,30.33,WNW,290,5.0,12.0,51,0.00,SKC,OVC,0.00,WeatherDisplay:10.37,2013-01-18 16:59:00,
2013-01-18 12:04:00,6.6,-8.2,30.33,WNW,299,6.0,16.0,50,0.00,SKC,OVC,0.00,WeatherDisplay:10.37,2013-01-18 17:04:00,
2013-01-18 12:09:00,6.9,-8.3,30.32,NW,314,3.0,12.0,49,0.00,SKC,OVC,0.00,WeatherDisplay:10.37,2013-01-18 17:09:00,
2013-01-18 12:14:00,7.1,-8.1,30.32,WNW,303,6.0,12.0,49,0.00,SKC,OVC,0.00,WeatherDisplay:10.37,2013-01-18 17:14:00,
2013-01-18 12:19:00,7.3,-7.9,30.32,WNW,292,5.0,7.0,49,0.00,SKC,OVC,0.00,WeatherDisplay:10.37,2013-01-18 17:19:00,
2013-01-18 12:29:00,7.6,-7.7,30.33,WNW,286,3.0,8.0,49,0.00,SKC,OVC,0.00,WeatherDisplay:10.37,2013-01-18 17:29:00,
2013-01-18 12:34:00,7.6,-7.6,30.33,West,259,2.0,12.0,49,0.00,SKC,OVC,0.00,WeatherDisplay:10.37,2013-01-18 17:34:00,
2013-01-18 12:39:00,7.9,-6.9,30.32,WSW,256,3.0,10.0,50,0.00,SKC,OVC,0.00,WeatherDisplay:10.37,2013-01-18 17:39:00,
2013-01-18 12:49:00,8.0,-7.2,30.33,West,259,3.0,9.0,49,0.00,SKC,OVC,0.00,WeatherDisplay:10.37,2013-01-18 17:49:00,
2013-01-18 12:54:00,8.1,-7.1,30.33,West,263,5.0,12.0,49,0.00,SKC,OVC,0.00,WeatherDisplay:10.37,2013-01-18 17:54:00,
2013-01-18 12:59:00,8.1,-7.2,30.33,West,264,5.0,14.0,49,0.00,SKC,OVC,0.00,WeatherDisplay:10.37,2013-01-18 17:59:00,
2013-01-18 13:04:00,7.9,-7.3,30.33,West,272,5.0,12.0,49,0.00,SKC,OVC,0.00,WeatherDisplay:10.37,2013-01-18 18:04:00,
2013-01-18 13:09:00,7.8,-7.4,30.33,West,275,6.0,16.0,49,0.00,SKC,OVC,0.00,WeatherDisplay:10.37,2013-01-18 18:09:00,
2013-01-18 13:14:00,8.0,-7.2,30.33,West,267,7.0,14.0,49,0.00,SKC,OVC,0.00,WeatherDisplay:10.37,2013-01-18 18:14:00,
2013-01-18 13:19:00,8.1,-7.2,30.33,West,264,6.0,12.0,49,0.00,SKC,OVC,0.00,WeatherDisplay:10.37,2013-01-18 18:19:00,
2013-01-18 13:24:00,8.1,-7.1,30.32,West,261,3.0,10.0,49,0.00,SKC,OVC,0.00,WeatherDisplay:10.37,2013-01-18 18:24:00,
2013-01-18 13:29:00,8.2,-6.6,30.33,West,265,6.0,14.0,50,0.00,SKC,OVC,0.00,WeatherDisplay:10.37,2013-01-18 18:29:00,
2013-01-18 13:34:00,8.3,-7.0,30.33,West,262,6.0,17.0,49,0.00,SKC,OVC,0.00,WeatherDisplay:10.37,2013-01-18 18:34:00,
2013-01-18 13:39:00,8.4,-6.9,30.33,West,279,5.0,12.0,49,0.00,SKC,OVC,0.00,WeatherDisplay:10.37,2013-01-18 18:39:00,
2013-01-18 13:44:00,8.4,-6.1,30.33,West,260,3.0,17.0,51,0.00,SKC,OVC,0.00,WeatherDisplay:10.37,2013-01-18 18:44:00,
2013-01-18 13:49:00,8.2,-5.9,30.33,SW,235,5.0,9.0,52,0.00,SKC,OVC,0.00,WeatherDisplay:10.37,2013-01-18 18:49:00,
2013-01-18 13:54:00,8.0,-5.6,30.33,WSW,244,5.0,7.0,53,0.00,SKC,OVC,0.00,WeatherDisplay:10.37,2013-01-18 18:54:00,
2013-01-18 13:59:00,7.8,-5.4,30.32,West,271,3.0,9.0,54,0.00,SKC,OVC,0.00,WeatherDisplay:10.37,2013-01-18 18:59:00,
2013-01-18 14:04:00,7.7,-5.5,30.32,WSW,246,5.0,10.0,54,0.00,SKC,OVC,0.00,WeatherDisplay:10.37,2013-01-18 19:04:00,
2013-01-18 14:09:00,7.9,-5.3,30.31,SW,234,6.0,8.0,54,0.00,SKC,OVC,0.00,WeatherDisplay:10.37,2013-01-18 19:09:00,
2013-01-18 14:14:00,7.7,-5.1,30.31,SW,226,3.0,9.0,55,0.00,SKC,OVC,0.00,WeatherDisplay:10.37,2013-01-18 19:14:00,
2013-01-18 14:19:00,7.8,-5.0,30.31,WSW,243,5.0,8.0,55,0.00,SKC,OVC,0.00,WeatherDisplay:10.37,2013-01-18 19:19:00,
2013-01-18 14:24:00,8.0,-4.9,30.32,SW,232,3.0,9.0,55,0.00,SKC,OVC,0.00,WeatherDisplay:10.37,2013-01-18 19:24:00,
2013-01-18 14:29:00,8.2,-4.3,30.32,SW,233,5.0,9.0,56,0.00,SKC,OVC,0.00,WeatherDisplay:10.37,2013-01-18 19:29:00,
2013-01-18 14:34:00,8.2,-4.7,30.32,WSW,243,3.0,10.0,55,0.00,SKC,OVC,0.00,WeatherDisplay:10.37,2013-01-18 19:34:00,
2013-01-18 14:39:00,8.4,-4.5,30.31,SW,225,1.0,6.0,55,0.00,SKC,OVC,0.00,WeatherDisplay:10.37,2013-01-18 19:39:00,
2013-01-18 14:44:00,8.2,-4.6,30.31,SW,220,2.0,7.0,55,0.00,SKC,OVC,0.00,WeatherDisplay:10.37,2013-01-18 19:44:00,
2013-01-18 14:49:00,8.3,-4.2,30.31,SW,227,1.0,6.0,56,0.00,SKC,OVC,0.00,WeatherDisplay:10.37,2013-01-18 19:49:00,
2013-01-18 14:54:00,8.4,-4.1,30.31,SW,234,1.0,5.0,56,0.00,SKC,OVC,0.00,WeatherDisplay:10.37,2013-01-18 19:54:00,
2013-01-18 14:59:00,8.6,-3.9,30.31,SW,214,2.0,8.0,56,0.00,SKC,OVC,0.00,WeatherDisplay:10.37,2013-01-18 19:59:00,
2013-01-18 15:04:00,8.9,-4.4,30.31,SSW,213,2.0,7.0,54,0.00,SKC,OVC,0.00,WeatherDisplay:10.37,2013-01-18 20:04:00,
2013-01-18 15:09:00,8.8,-4.5,30.31,SSW,209,2.0,7.0,54,0.00,SKC,OVC,0.00,WeatherDisplay:10.37,2013-01-18 20:09:00,
2013-01-18 15:14:00,8.6,-4.3,30.31,SSW,213,1.0,6.0,55,0.00,SCT,OVC,0.00,WeatherDisplay:10.37,2013-01-18 20:14:00,
2013-01-18 15:19:00,8.6,-4.3,30.31,SW,220,5.0,10.0,55,0.00,SCT,OVC,0.00,WeatherDisplay:10.37,2013-01-18 20:19:00,
2013-01-18 15:29:00,8.4,-4.5,30.31,SW,233,2.0,5.0,55,0.00,SCT,OVC,0.00,WeatherDisplay:10.37,2013-01-18 20:29:00,
2013-01-18 15:34:00,8.2,-5.1,30.32,SW,218,3.0,10.0,54,0.00,SCT,OVC,0.00,WeatherDisplay:10.37,2013-01-18 20:34:00,
2013-01-18 15:39:00,8.0,-5.2,30.32,SW,220,3.0,9.0,54,0.00,SCT,OVC,0.00,WeatherDisplay:10.37,2013-01-18 20:39:00,
2013-01-18 15:44:00,7.8,-5.1,30.32,SW,229,5.0,10.0,55,0.00,SCT,OVC,0.00,WeatherDisplay:10.37,2013-01-18 20:44:00,
2013-01-18 15:49:00,7.5,-5.3,30.32,SW,232,3.0,7.0,55,0.00,SCT,OVC,0.00,WeatherDisplay:10.37,2013-01-18 20:49:00,
2013-01-18 15:54:00,7.4,-5.4,30.32,SW,231,5.0,8.0,55,0.00,SCT,OVC,0.00,WeatherDisplay:10.37,2013-01-18 20:54:00,
2013-01-18 15:59:00,7.4,-5.5,30.32,SW,223,2.0,4.0,55,0.00,SCT,OVC,0.00,WeatherDisplay:10.37,2013-01-18 20:59:00,
2013-01-18 16:04:00,6.9,-5.1,30.32,SW,228,1.0,5.0,57,0.00,SCT,OVC,0.00,WeatherDisplay:10.37,2013-01-18 21:04:00,
2013-01-18 16:09:00,7.0,-5.4,30.32,WSW,242,3.0,7.0,56,0.00,SCT,OVC,0.00,WeatherDisplay:10.37,2013-01-18 21:09:00,
2013-01-18 16:14:00,6.9,-5.1,30.32,SW,229,1.0,9.0,57,0.00,BKN,OVC,0.00,WeatherDisplay:10.37,2013-01-18 21:14:00,
2013-01-18 16:19:00,6.7,-5.3,30.32,SW,224,2.0,7.0,57,0.00,BKN,OVC,0.00,WeatherDisplay:10.37,2013-01-18 21:19:00,
2013-01-18 16:24:00,6.6,-5.4,30.32,SW,231,2.0,5.0,57,0.00,BKN,OVC,0.00,WeatherDisplay:10.37,2013-01-18 21:24:00,
2013-01-18 16:29:00,6.5,-5.5,30.32,SW,224,0.0,7.0,57,0.00,BKN,OVC,0.00,WeatherDisplay:10.37,2013-01-18 21:29:00,
2013-01-18 16:34:00,6.3,-5.3,30.31,SW,221,1.0,9.0,58,0.00,BKN,OVC,0.00,WeatherDisplay:10.37,2013-01-18 21:34:00,
2013-01-18 16:39:00,6.0,-5.3,30.31,SW,222,0.0,3.0,59,0.00,BKN,OVC,0.00,WeatherDisplay:10.37,2013-01-18 21:39:00,
2013-01-18 16:45:00,5.8,-5.4,30.31,WSW,243,1.0,6.0,59,0.00,BKN,OVC,0.00,WeatherDisplay:10.37,2013-01-18 21:45:00,
2013-01-18 16:50:00,5.7,-5.6,30.31,WSW,241,1.0,8.0,59,0.00,BKN,OVC,0.00,WeatherDisplay:10.37,2013-01-18 21:50:00,
2013-01-18 16:55:00,5.6,-5.7,30.31,SW,236,0.0,8.0,59,0.00,BKN,OVC,0.00,WeatherDisplay:10.37,2013-01-18 21:55:00,
2013-01-18 17:00:00,5.6,-5.7,30.31,WSW,258,2.0,5.0,59,0.00,BKN,OVC,0.00,WeatherDisplay:10.37,2013-01-18 22:00:00,
2013-01-18 17:05:00,5.5,-5.7,30.30,West,274,0.0,3.0,59,0.00,BKN,OVC,0.00,WeatherDisplay:10.37,2013-01-18 22:05:00,
2013-01-18 17:10:00,5.4,-5.9,30.30,West,261,1.0,4.0,59,0.00,BKN,OVC,0.00,WeatherDisplay:10.37,2013-01-18 22:10:00,
2013-01-18 17:20:00,4.3,-5.8,30.30,West,267,0.0,1.0,62,0.00,OVC,OVC,0.00,WeatherDisplay:10.37,2013-01-18 22:20:00,
2013-01-18 17:30:00,3.2,-6.5,30.30,West,270,0.0,0.0,63,0.00,OVC,OVC,0.00,WeatherDisplay:10.37,2013-01-18 22:30:00,
2013-01-18 17:35:00,2.9,-6.2,30.30,West,270,0.0,0.0,65,0.00,OVC,OVC,0.00,WeatherDisplay:10.37,2013-01-18 22:35:00,
2013-01-18 17:40:00,2.7,-6.4,30.31,West,270,0.0,0.0,65,0.00,OVC,OVC,0.00,WeatherDisplay:10.37,2013-01-18 22:40:00,
2013-01-18 17:45:00,2.3,-6.2,30.31,West,270,0.0,0.0,67,0.00,OVC,OVC,0.00,WeatherDisplay:10.37,2013-01-18 22:45:00,
2013-01-18 17:50:00,1.8,-6.1,30.30,West,270,0.0,0.0,69,0.00,OVC,OVC,0.00,WeatherDisplay:10.37,2013-01-18 22:50:00,
2013-01-18 17:55:00,1.3,-5.9,30.30,West,270,0.0,0.0,71,0.00,OVC,OVC,0.00,WeatherDisplay:10.37,2013-01-18 22:55:00,
2013-01-18 18:00:00,1.2,-6.0,30.30,West,270,0.0,0.0,71,0.00,OVC,OVC,0.00,WeatherDisplay:10.37,2013-01-18 23:00:00,
2013-01-18 18:05:00,1.4,-5.6,30.30,West,270,0.0,0.0,72,0.00,OVC,OVC,0.00,WeatherDisplay:10.37,2013-01-18 23:05:00,
2013-01-18 18:10:00,1.5,-5.7,30.30,West,270,0.0,0.0,71,0.00,OVC,OVC,0.00,WeatherDisplay:10.37,2013-01-18 23:10:00,
2013-01-18 18:15:00,1.8,-6.0,30.29,West,270,0.0,0.0,69,0.00,OVC,OVC,0.00,WeatherDisplay:10.37,2013-01-18 23:15:00,
2013-01-18 18:20:00,1.8,-5.5,30.29,West,270,0.0,0.0,71,0.00,OVC,OVC,0.00,WeatherDisplay:10.37,2013-01-18 23:20:00,
2013-01-18 18:30:00,1.7,-5.2,30.29,West,270,0.0,0.0,72,0.00,OVC,OVC,0.00,WeatherDisplay:10.37,2013-01-18 23:30:00,
2013-01-18 18:35:00,1.8,-4.9,30.29,West,270,0.0,0.0,73,0.00,OVC,OVC,0.00,WeatherDisplay:10.37,2013-01-18 23:35:00,
2013-01-18 18:40:00,2.0,-4.7,30.29,West,270,0.0,0.0,73,0.00,OVC,OVC,0.00,WeatherDisplay:10.37,2013-01-18 23:40:00,
2013-01-18 18:45:00,2.1,-4.8,30.29,West,270,0.0,0.0,72,0.00,OVC,OVC,0.00,WeatherDisplay:10.37,2013-01-18 23:45:00,
2013-01-18 18:50:00,2.3,-4.4,30.29,West,270,0.0,0.0,73,0.00,OVC,OVC,0.00,WeatherDisplay:10.37,2013-01-18 23:50:00,
2013-01-18 18:55:00,2.4,-4.3,30.29,West,270,0.0,0.0,73,0.00,OVC,OVC,0.00,WeatherDisplay:10.37,2013-01-18 23:55:00,
2013-01-18 19:00:00,2.5,-3.9,30.28,West,270,0.0,0.0,74,0.00,OVC,OVC,0.00,WeatherDisplay:10.37,2013-01-19 00:00:00,
2013-01-18 19:05:00,2.6,-4.1,30.28,West,270,0.0,0.0,73,0.00,OVC,OVC,0.00,WeatherDisplay:10.37,2013-01-19 00:05:00,
2013-01-18 19:10:00,2.6,-4.1,30.28,West,270,0.0,0.0,73,0.00,OVC,OVC,0.00,WeatherDisplay:10.37,2013-01-19 00:10:00,
2013-01-18 19:20:00,2.6,-4.1,30.28,West,270,0.0,0.0,73,0.00,OVC,OVC,0.00,WeatherDisplay:10.37,2013-01-19 00:20:00,
2013-01-18 19:25:00,2.6,-4.4,30.28,West,270,0.0,0.0,72,0.00,OVC,OVC,0.00,WeatherDisplay:10.37,2013-01-19 00:25:00,
2013-01-18 19:30:00,2.6,-4.4,30.28,West,270,0.0,0.0,72,0.00,OVC,OVC,0.00,WeatherDisplay:10.37,2013-01-19 00:30:00,
2013-01-18 19:40:00,2.8,-4.2,30.28,West,270,0.0,0.0,72,0.00,OVC,OVC,0.00,WeatherDisplay:10.37,2013-01-19 00:40:00,
2013-01-18 19:45:00,3.0,-4.3,30.28,West,270,0.0,0.0,71,0.00,OVC,OVC,0.00,WeatherDisplay:10.37,2013-01-19 00:45:00,
2013-01-18 19:50:00,3.1,-4.5,30.28,West,270,0.0,0.0,70,0.00,OVC,OVC,0.00,WeatherDisplay:10.37,2013-01-19 00:50:00,
2013-01-18 19:55:00,3.2,-4.1,30.28,West,270,0.0,0.0,71,0.00,OVC,OVC,0.00,WeatherDisplay:10.37,2013-01-19 00:55:00,
2013-01-18 20:00:00,3.3,-4.0,30.28,West,270,0.0,0.0,71,0.00,OVC,OVC,0.00,WeatherDisplay:10.37,2013-01-19 01:00:00,
2013-01-18 20:05:00,3.4,-3.9,30.28,West,270,0.0,0.0,71,0.00,OVC,OVC,0.00,WeatherDisplay:10.37,2013-01-19 01:05:00,
2013-01-18 20:10:00,3.5,-3.8,30.28,West,270,0.0,0.0,71,0.00,OVC,OVC,0.00,WeatherDisplay:10.37,2013-01-19 01:10:00,
2013-01-18 20:15:00,3.7,-3.7,30.28,West,270,0.0,0.0,71,0.00,OVC,OVC,0.00,WeatherDisplay:10.37,2013-01-19 01:15:00,
2013-01-18 20:20:00,3.8,-3.3,30.28,West,270,0.0,0.0,72,0.00,OVC,OVC,0.00,WeatherDisplay:10.37,2013-01-19 01:20:00,
2013-01-18 20:25:00,3.8,-3.2,30.28,West,270,0.0,0.0,72,0.00,OVC,OVC,0.00,WeatherDisplay:10.37,2013-01-19 01:25:00,
2013-01-18 20:30:00,3.9,-3.1,30.27,West,270,0.0,0.0,72,0.00,OVC,OVC,0.00,WeatherDisplay:10.37,2013-01-19 01:30:00,
2013-01-18 20:40:00,4.0,-2.7,30.27,West,270,0.0,0.0,73,0.00,OVC,OVC,0.00,WeatherDisplay:10.37,2013-01-19 01:40:00,
2013-01-18 20:45:00,4.1,-2.6,30.27,West,270,0.0,0.0,73,0.00,OVC,OVC,0.00,WeatherDisplay:10.37,2013-01-19 01:45:00,
2013-01-18 20:50:00,4.0,-3.0,30.27,West,272,0.0,1.0,72,0.00,OVC,OVC,0.00,WeatherDisplay:10.37,2013-01-19 01:50:00,
2013-01-18 20:55:00,3.9,-3.1,30.27,West,273,0.0,1.0,72,0.00,OVC,OVC,0.00,WeatherDisplay:10.37,2013-01-19 01:55:00,
2013-01-18 21:00:00,3.8,-2.9,30.27,West,274,0.0,0.0,73,0.00,OVC,OVC,0.00,WeatherDisplay:10.37,2013-01-19 02:00:00,
2013-01-18 21:10:00,4.0,-2.2,30.26,West,274,0.0,1.0,75,0.00,OVC,OVC,0.00,WeatherDisplay:10.37,2013-01-19 02:10:00,
2013-01-18 21:15:00,4.0,-2.2,30.26,West,281,0.0,1.0,75,0.00,OVC,OVC,0.00,WeatherDisplay:10.37,2013-01-19 02:15:00,
2013-01-18 21:20:00,4.0,-2.2,30.26,WNW,293,0.0,0.0,75,0.00,OVC,OVC,0.00,WeatherDisplay:10.37,2013-01-19 02:20:00,
2013-01-18 21:25:00,4.1,-2.1,30.25,WNW,296,0.0,0.0,75,0.00,OVC,OVC,0.00,WeatherDisplay:10.37,2013-01-19 02:25:00,
2013-01-18 21:30:00,4.2,-2.3,30.25,NW,305,0.0,1.0,74,0.00,OVC,OVC,0.00,WeatherDisplay:10.37,2013-01-19 02:30:00,
2013-01-18 21:35:00,4.3,-1.9,30.25,NNW,329,0.0,1.0,75,0.00,OVC,OVC,0.00,WeatherDisplay:10.37,2013-01-19 02:35:00,
2013-01-18 21:40:00,4.4,-1.5,30.24,NNW,340,0.0,2.0,76,0.00,OVC,OVC,0.00,WeatherDisplay:10.37,2013-01-19 02:40:00,
2013-01-18 21:45:00,4.4,-1.2,30.24,NNW,334,1.0,2.0,77,0.00,OVC,OVC,0.00,WeatherDisplay:10.37,2013-01-19 02:45:00,
2013-01-18 21:50:00,4.5,-0.6,30.24,NNW,336,0.0,1.0,79,0.00,OVC,OVC,0.00,WeatherDisplay:10.37,2013-01-19 02:50:00,
2013-01-18 21:55:00,4.5,-0.3,30.23,NNW,336,0.0,1.0,80,0.00,OVC,OVC,0.00,WeatherDisplay:10.37,2013-01-19 02:55:00,
2013-01-18 22:00:00,4.6,0.1,30.23,NNW,336,0.0,0.0,81,0.00,OVC,OVC,0.00,WeatherDisplay:10.37,2013-01-19 03:00:00,
2013-01-18 22:05:00,4.7,0.2,30.23,NNW,336,0.0,0.0,81,0.00,OVC,OVC,0.00,WeatherDisplay:10.37,2013-01-19 03:05:00,
2013-01-18 22:10:00,4.7,0.4,30.22,NNW,344,0.0,1.0,82,0.00,OVC,OVC,0.00,WeatherDisplay:10.37,2013-01-19 03:10:00,
2013-01-18 22:20:00,4.9,0.9,30.22,NNE,30,0.0,1.0,83,0.00,-SN,OVC,0.00,WeatherDisplay:10.37,2013-01-19 03:20:00,
2013-01-18 22:25:00,5.0,1.0,30.21,NNE,18,0.0,1.0,83,0.00,-SN,OVC,0.00,WeatherDisplay:10.37,2013-01-19 03:25:00,
2013-01-18 22:30:00,5.1,1.1,30.21,North,9,0.0,1.0,83,0.00,-SN,OVC,0.00,WeatherDisplay:10.37,2013-01-19 03:30:00,
2013-01-18 22:35:00,5.3,1.5,30.21,North,355,0.0,2.0,84,0.00,-SN,OVC,0.00,WeatherDisplay:10.37,2013-01-19 03:35:00,
2013-01-18 22:40:00,5.4,1.6,30.20,North,355,0.0,1.0,84,0.00,-SN,OVC,0.00,WeatherDisplay:10.37,2013-01-19 03:40:00,
2013-01-18 22:45:00,5.6,1.8,30.20,North,355,0.0,1.0,84,0.00,-SN,OVC,0.00,WeatherDisplay:10.37,2013-01-19 03:45:00,
2013-01-18 22:55:00,5.8,2.3,30.19,NNW,347,0.0,1.0,85,0.00,-SN,OVC,0.01,WeatherDisplay:10.37,2013-01-19 03:55:00,
2013-01-18 23:00:00,5.9,2.4,30.19,NNW,348,0.0,1.0,85,0.00,-SN,OVC,0.01,WeatherDisplay:10.37,2013-01-19 04:00:00,
2013-01-18 23:05:00,6.1,2.6,30.18,NNW,348,0.0,0.0,85,0.00,-SN,OVC,0.01,WeatherDisplay:10.37,2013-01-19 04:05:00,
2013-01-18 23:15:00,6.2,2.7,30.18,NNW,348,0.0,0.0,85,0.00,-SN,OVC,0.01,WeatherDisplay:10.37,2013-01-19 04:15:00,
2013-01-18 23:25:00,6.4,2.9,30.17,NNW,348,0.0,0.0,85,0.00,-SN,OVC,0.01,WeatherDisplay:10.37,2013-01-19 04:25:00,
2013-01-18 23:30:00,6.5,2.9,30.17,NNW,345,0.0,2.0,85,0.01,-SN,OVC,0.02,WeatherDisplay:10.37,2013-01-19 04:30:00,
2013-01-18 23:35:00,6.6,3.0,30.17,NNW,327,0.0,1.0,85,0.00,-SN,OVC,0.02,WeatherDisplay:10.37,2013-01-19 04:35:00,
2013-01-18 23:45:00,6.7,3.4,30.16,NW,314,0.0,0.0,86,0.00,-SN,OVC,0.02,WeatherDisplay:10.37,2013-01-19 04:45:00,
2013-01-18 23:50:00,6.8,3.5,30.16,NW,314,0.0,0.0,86,0.00,-SN,OVC,0.02,WeatherDisplay:10.37,2013-01-19 04:50:00,